sensor_id;sensor_type;location;lat;lon;timestamp;P1;durP1;ratioP1;P2;durP2;ratioP2
10056;SDS011;5068;51.286;7.518;2023-08-21T00:01:15;2.47;;;1.45;;
10056;SDS011;5068;51.286;7.518;2023-08-21T00:02:48;3.90;;;1.60;;
10056;SDS011;5068;51.286;7.518;2023-08-21T00:04:22;4.25;;;1.52;;
10056;SDS011;5068;51.286;7.518;2023-08-21T00:05:54;3.67;;;1.50;;
10056;SDS011;5068;51.286;7.518;2023-08-21T00:07:27;1.98;;;1.52;;
10056;SDS011;5068;51.286;7.518;2023-08-21T00:09:00;1.83;;;1.20;;
10056;SDS011;5068;51.286;7.518;2023-08-21T00:10:38;4.03;;;1.80;;
10056;SDS011;5068;51.286;7.518;2023-08-21T00:12:12;3.33;;;1.63;;
10056;SDS011;5068;51.286;7.518;2023-08-21T00:13:44;3.72;;;1.80;;
10056;SDS011;5068;51.286;7.518;2023-08-21T00:15:20;4.15;;;1.52;;
10056;SDS011;5068;51.286;7.518;2023-08-21T00:16:53;5.40;;;1.73;;
10056;SDS011;5068;51.286;7.518;2023-08-21T00:18:25;4.28;;;1.38;;
10056;SDS011;5068;51.286;7.518;2023-08-21T00:19:59;5.25;;;1.70;;
10056;SDS011;5068;51.286;7.518;2023-08-21T00:21:31;2.60;;;1.55;;
10056;SDS011;5068;51.286;7.518;2023-08-21T00:23:04;3.25;;;1.50;;
10056;SDS011;5068;51.286;7.518;2023-08-21T00:24:36;2.63;;;1.30;;
10056;SDS011;5068;51.286;7.518;2023-08-21T00:26:11;3.13;;;1.38;;
10056;SDS011;5068;51.286;7.518;2023-08-21T00:27:46;3.45;;;1.60;;
10056;SDS011;5068;51.286;7.518;2023-08-21T00:29:20;1.92;;;1.20;;
10056;SDS011;5068;51.286;7.518;2023-08-21T00:30:59;2.65;;;1.30;;
10056;SDS011;5068;51.286;7.518;2023-08-21T00:32:33;2.70;;;1.63;;
10056;SDS011;5068;51.286;7.518;2023-08-21T00:34:07;2.67;;;1.48;;
10056;SDS011;5068;51.286;7.518;2023-08-21T00:35:41;3.85;;;1.48;;
10056;SDS011;5068;51.286;7.518;2023-08-21T00:37:14;1.80;;;1.30;;
10056;SDS011;5068;51.286;7.518;2023-08-21T00:38:47;3.88;;;1.40;;
10056;SDS011;5068;51.286;7.518;2023-08-21T00:40:19;5.90;;;1.50;;
10056;SDS011;5068;51.286;7.518;2023-08-21T00:41:55;2.60;;;1.33;;
10056;SDS011;5068;51.286;7.518;2023-08-21T00:43:28;1.88;;;1.20;;
10056;SDS011;5068;51.286;7.518;2023-08-21T00:45:00;2.72;;;1.33;;
10056;SDS011;5068;51.286;7.518;2023-08-21T00:46:34;3.15;;;1.83;;
10056;SDS011;5068;51.286;7.518;2023-08-21T00:48:07;3.25;;;1.42;;
10056;SDS011;5068;51.286;7.518;2023-08-21T00:49:41;3.17;;;1.30;;
10056;SDS011;5068;51.286;7.518;2023-08-21T00:51:14;4.28;;;1.30;;
10056;SDS011;5068;51.286;7.518;2023-08-21T00:54:22;2.97;;;1.20;;
10056;SDS011;5068;51.286;7.518;2023-08-21T00:55:56;2.55;;;1.50;;
10056;SDS011;5068;51.286;7.518;2023-08-21T00:57:31;3.33;;;1.48;;
10056;SDS011;5068;51.286;7.518;2023-08-21T00:59:03;6.68;;;2.10;;
10056;SDS011;5068;51.286;7.518;2023-08-21T01:00:37;4.85;;;1.52;;
10056;SDS011;5068;51.286;7.518;2023-08-21T01:02:10;2.63;;;1.30;;
10056;SDS011;5068;51.286;7.518;2023-08-21T01:03:44;1.30;;;1.20;;
10056;SDS011;5068;51.286;7.518;2023-08-21T01:05:17;4.20;;;1.35;;
10056;SDS011;5068;51.286;7.518;2023-08-21T01:06:50;4.43;;;1.50;;
10056;SDS011;5068;51.286;7.518;2023-08-21T01:08:25;4.15;;;1.25;;
10056;SDS011;5068;51.286;7.518;2023-08-21T01:10:11;2.35;;;1.30;;
10056;SDS011;5068;51.286;7.518;2023-08-21T01:11:56;1.98;;;1.38;;
10056;SDS011;5068;51.286;7.518;2023-08-21T01:13:47;2.75;;;1.10;;
10056;SDS011;5068;51.286;7.518;2023-08-21T01:15:33;3.22;;;1.40;;
10056;SDS011;5068;51.286;7.518;2023-08-21T01:17:06;4.22;;;1.30;;
10056;SDS011;5068;51.286;7.518;2023-08-21T01:18:44;3.50;;;1.55;;
10056;SDS011;5068;51.286;7.518;2023-08-21T01:20:21;2.80;;;1.60;;
10056;SDS011;5068;51.286;7.518;2023-08-21T01:21:54;3.20;;;1.42;;
10056;SDS011;5068;51.286;7.518;2023-08-21T01:23:32;4.80;;;1.50;;
10056;SDS011;5068;51.286;7.518;2023-08-21T01:25:06;2.63;;;1.50;;
10056;SDS011;5068;51.286;7.518;2023-08-21T01:26:41;2.70;;;1.50;;
10056;SDS011;5068;51.286;7.518;2023-08-21T01:28:14;2.65;;;1.50;;
10056;SDS011;5068;51.286;7.518;2023-08-21T01:29:46;5.28;;;1.35;;
10056;SDS011;5068;51.286;7.518;2023-08-21T01:31:21;3.97;;;1.50;;
10056;SDS011;5068;51.286;7.518;2023-08-21T01:33:04;3.88;;;1.45;;
10056;SDS011;5068;51.286;7.518;2023-08-21T01:34:42;4.72;;;1.40;;
10056;SDS011;5068;51.286;7.518;2023-08-21T01:36:18;5.60;;;1.55;;
10056;SDS011;5068;51.286;7.518;2023-08-21T01:37:51;5.03;;;1.67;;
10056;SDS011;5068;51.286;7.518;2023-08-21T01:39:26;5.97;;;1.52;;
10056;SDS011;5068;51.286;7.518;2023-08-21T01:41:00;3.17;;;1.45;;
10056;SDS011;5068;51.286;7.518;2023-08-21T01:42:34;2.97;;;1.30;;
10056;SDS011;5068;51.286;7.518;2023-08-21T01:44:06;1.95;;;1.30;;
10056;SDS011;5068;51.286;7.518;2023-08-21T01:45:40;4.68;;;1.50;;
10056;SDS011;5068;51.286;7.518;2023-08-21T01:47:12;4.90;;;1.30;;
10056;SDS011;5068;51.286;7.518;2023-08-21T01:48:45;2.63;;;1.65;;
10056;SDS011;5068;51.286;7.518;2023-08-21T01:50:18;2.17;;;1.17;;
10056;SDS011;5068;51.286;7.518;2023-08-21T01:51:51;4.90;;;1.45;;
10056;SDS011;5068;51.286;7.518;2023-08-21T01:53:24;4.35;;;1.58;;
10056;SDS011;5068;51.286;7.518;2023-08-21T01:54:58;4.18;;;1.40;;
10056;SDS011;5068;51.286;7.518;2023-08-21T01:56:32;2.78;;;1.40;;
10056;SDS011;5068;51.286;7.518;2023-08-21T01:58:04;2.00;;;1.20;;
10056;SDS011;5068;51.286;7.518;2023-08-21T01:59:38;3.90;;;1.35;;
10056;SDS011;5068;51.286;7.518;2023-08-21T02:01:11;2.15;;;1.38;;
10056;SDS011;5068;51.286;7.518;2023-08-21T02:02:44;1.85;;;1.30;;
10056;SDS011;5068;51.286;7.518;2023-08-21T02:04:17;2.80;;;1.30;;
10056;SDS011;5068;51.286;7.518;2023-08-21T02:05:49;3.45;;;1.52;;
10056;SDS011;5068;51.286;7.518;2023-08-21T02:07:23;3.80;;;1.73;;
10056;SDS011;5068;51.286;7.518;2023-08-21T02:08:55;2.97;;;1.20;;
10056;SDS011;5068;51.286;7.518;2023-08-21T02:10:30;5.28;;;2.10;;
10056;SDS011;5068;51.286;7.518;2023-08-21T02:12:02;3.17;;;1.45;;
10056;SDS011;5068;51.286;7.518;2023-08-21T02:13:36;3.28;;;1.50;;
10056;SDS011;5068;51.286;7.518;2023-08-21T02:15:09;4.28;;;1.48;;
10056;SDS011;5068;51.286;7.518;2023-08-21T02:16:42;5.65;;;1.60;;
10056;SDS011;5068;51.286;7.518;2023-08-21T02:18:15;2.08;;;1.50;;
10056;SDS011;5068;51.286;7.518;2023-08-21T02:19:48;3.15;;;1.50;;
10056;SDS011;5068;51.286;7.518;2023-08-21T02:21:21;4.63;;;1.58;;
10056;SDS011;5068;51.286;7.518;2023-08-21T02:22:53;3.80;;;2.00;;
10056;SDS011;5068;51.286;7.518;2023-08-21T02:24:26;3.83;;;1.55;;
10056;SDS011;5068;51.286;7.518;2023-08-21T02:26:00;4.30;;;1.40;;
10056;SDS011;5068;51.286;7.518;2023-08-21T02:27:33;4.32;;;1.83;;
10056;SDS011;5068;51.286;7.518;2023-08-21T02:29:05;3.85;;;1.83;;
10056;SDS011;5068;51.286;7.518;2023-08-21T02:30:39;4.25;;;1.40;;
10056;SDS011;5068;51.286;7.518;2023-08-21T02:32:12;4.85;;;1.58;;
10056;SDS011;5068;51.286;7.518;2023-08-21T02:33:45;1.90;;;1.30;;
10056;SDS011;5068;51.286;7.518;2023-08-21T02:35:17;2.42;;;1.15;;
10056;SDS011;5068;51.286;7.518;2023-08-21T02:36:51;3.10;;;1.40;;
10056;SDS011;5068;51.286;7.518;2023-08-21T02:38:24;2.63;;;1.50;;
10056;SDS011;5068;51.286;7.518;2023-08-21T02:39:57;4.18;;;1.70;;
10056;SDS011;5068;51.286;7.518;2023-08-21T02:41:32;3.90;;;1.52;;
10056;SDS011;5068;51.286;7.518;2023-08-21T02:43:05;3.78;;;1.65;;
10056;SDS011;5068;51.286;7.518;2023-08-21T02:44:38;3.60;;;1.42;;
10056;SDS011;5068;51.286;7.518;2023-08-21T02:46:11;5.03;;;1.52;;
10056;SDS011;5068;51.286;7.518;2023-08-21T02:47:44;2.10;;;1.63;;
10056;SDS011;5068;51.286;7.518;2023-08-21T02:49:18;3.05;;;1.42;;
10056;SDS011;5068;51.286;7.518;2023-08-21T02:50:51;4.28;;;1.88;;
10056;SDS011;5068;51.286;7.518;2023-08-21T02:52:24;3.28;;;1.50;;
10056;SDS011;5068;51.286;7.518;2023-08-21T02:53:58;3.25;;;1.42;;
10056;SDS011;5068;51.286;7.518;2023-08-21T02:55:33;3.30;;;1.65;;
10056;SDS011;5068;51.286;7.518;2023-08-21T02:57:07;2.45;;;1.50;;
10056;SDS011;5068;51.286;7.518;2023-08-21T02:58:40;2.63;;;1.40;;
10056;SDS011;5068;51.286;7.518;2023-08-21T03:00:12;3.08;;;1.48;;
10056;SDS011;5068;51.286;7.518;2023-08-21T03:01:46;3.95;;;1.50;;
10056;SDS011;5068;51.286;7.518;2023-08-21T03:03:18;2.10;;;1.60;;
10056;SDS011;5068;51.286;7.518;2023-08-21T03:04:52;2.90;;;1.50;;
10056;SDS011;5068;51.286;7.518;2023-08-21T03:06:25;2.63;;;1.35;;
10056;SDS011;5068;51.286;7.518;2023-08-21T03:07:58;3.92;;;1.42;;
10056;SDS011;5068;51.286;7.518;2023-08-21T03:09:31;3.75;;;1.45;;
10056;SDS011;5068;51.286;7.518;2023-08-21T03:11:04;1.90;;;1.52;;
10056;SDS011;5068;51.286;7.518;2023-08-21T03:12:38;8.20;;;2.00;;
10056;SDS011;5068;51.286;7.518;2023-08-21T03:14:12;2.50;;;1.60;;
10056;SDS011;5068;51.286;7.518;2023-08-21T03:15:45;2.97;;;1.65;;
10056;SDS011;5068;51.286;7.518;2023-08-21T03:17:18;1.75;;;1.48;;
10056;SDS011;5068;51.286;7.518;2023-08-21T03:18:55;4.82;;;1.83;;
10056;SDS011;5068;51.286;7.518;2023-08-21T03:20:30;2.97;;;1.50;;
10056;SDS011;5068;51.286;7.518;2023-08-21T03:22:03;2.58;;;1.45;;
10056;SDS011;5068;51.286;7.518;2023-08-21T03:23:37;2.72;;;1.67;;
10056;SDS011;5068;51.286;7.518;2023-08-21T03:25:10;3.22;;;1.60;;
10056;SDS011;5068;51.286;7.518;2023-08-21T03:26:42;5.75;;;1.75;;
10056;SDS011;5068;51.286;7.518;2023-08-21T03:28:17;3.08;;;1.63;;
10056;SDS011;5068;51.286;7.518;2023-08-21T03:29:51;3.70;;;1.90;;
10056;SDS011;5068;51.286;7.518;2023-08-21T03:31:23;8.88;;;1.90;;
10056;SDS011;5068;51.286;7.518;2023-08-21T03:32:56;3.97;;;1.80;;
10056;SDS011;5068;51.286;7.518;2023-08-21T03:34:29;8.15;;;1.80;;
10056;SDS011;5068;51.286;7.518;2023-08-21T03:36:05;4.60;;;2.15;;
10056;SDS011;5068;51.286;7.518;2023-08-21T03:37:39;5.32;;;1.55;;
10056;SDS011;5068;51.286;7.518;2023-08-21T03:39:16;4.18;;;1.65;;
10056;SDS011;5068;51.286;7.518;2023-08-21T03:40:51;3.63;;;1.73;;
10056;SDS011;5068;51.286;7.518;2023-08-21T03:42:24;2.25;;;1.25;;
10056;SDS011;5068;51.286;7.518;2023-08-21T03:43:58;4.38;;;1.70;;
10056;SDS011;5068;51.286;7.518;2023-08-21T03:45:31;2.20;;;1.55;;
10056;SDS011;5068;51.286;7.518;2023-08-21T03:47:04;3.33;;;1.45;;
10056;SDS011;5068;51.286;7.518;2023-08-21T03:48:43;2.90;;;1.60;;
10056;SDS011;5068;51.286;7.518;2023-08-21T03:52:17;2.55;;;1.67;;
10056;SDS011;5068;51.286;7.518;2023-08-21T03:53:49;3.20;;;1.63;;
10056;SDS011;5068;51.286;7.518;2023-08-21T03:55:22;4.65;;;2.45;;
10056;SDS011;5068;51.286;7.518;2023-08-21T03:56:55;8.10;;;2.25;;
10056;SDS011;5068;51.286;7.518;2023-08-21T03:58:28;2.95;;;1.70;;
10056;SDS011;5068;51.286;7.518;2023-08-21T04:00:03;5.30;;;2.03;;
10056;SDS011;5068;51.286;7.518;2023-08-21T04:01:45;4.00;;;2.10;;
10056;SDS011;5068;51.286;7.518;2023-08-21T04:03:19;5.45;;;1.70;;
10056;SDS011;5068;51.286;7.518;2023-08-21T04:04:52;4.15;;;1.50;;
10056;SDS011;5068;51.286;7.518;2023-08-21T04:06:25;4.28;;;1.80;;
10056;SDS011;5068;51.286;7.518;2023-08-21T04:07:58;4.72;;;2.30;;
10056;SDS011;5068;51.286;7.518;2023-08-21T04:09:30;4.03;;;1.80;;
10056;SDS011;5068;51.286;7.518;2023-08-21T04:11:04;2.42;;;1.70;;
10056;SDS011;5068;51.286;7.518;2023-08-21T04:12:38;4.53;;;2.00;;
10056;SDS011;5068;51.286;7.518;2023-08-21T04:14:12;8.02;;;2.58;;
10056;SDS011;5068;51.286;7.518;2023-08-21T04:15:47;3.58;;;1.83;;
10056;SDS011;5068;51.286;7.518;2023-08-21T04:17:21;5.28;;;1.90;;
10056;SDS011;5068;51.286;7.518;2023-08-21T04:18:54;4.32;;;2.22;;
10056;SDS011;5068;51.286;7.518;2023-08-21T04:20:26;2.88;;;1.73;;
10056;SDS011;5068;51.286;7.518;2023-08-21T04:22:00;2.50;;;1.70;;
10056;SDS011;5068;51.286;7.518;2023-08-21T04:23:33;2.78;;;1.95;;
10056;SDS011;5068;51.286;7.518;2023-08-21T04:25:06;4.07;;;2.10;;
10056;SDS011;5068;51.286;7.518;2023-08-21T04:26:40;3.17;;;1.77;;
10056;SDS011;5068;51.286;7.518;2023-08-21T04:28:13;5.40;;;2.35;;
10056;SDS011;5068;51.286;7.518;2023-08-21T04:29:46;4.40;;;1.75;;
10056;SDS011;5068;51.286;7.518;2023-08-21T04:31:20;3.78;;;2.33;;
10056;SDS011;5068;51.286;7.518;2023-08-21T04:32:53;3.15;;;2.10;;
10056;SDS011;5068;51.286;7.518;2023-08-21T04:34:26;3.13;;;1.95;;
10056;SDS011;5068;51.286;7.518;2023-08-21T04:35:59;5.55;;;1.92;;
10056;SDS011;5068;51.286;7.518;2023-08-21T04:37:33;5.72;;;2.05;;
10056;SDS011;5068;51.286;7.518;2023-08-21T04:39:06;2.10;;;1.60;;
10056;SDS011;5068;51.286;7.518;2023-08-21T04:40:40;4.50;;;2.00;;
10056;SDS011;5068;51.286;7.518;2023-08-21T04:42:12;3.47;;;1.92;;
10056;SDS011;5068;51.286;7.518;2023-08-21T04:43:46;3.00;;;1.77;;
10056;SDS011;5068;51.286;7.518;2023-08-21T04:45:18;2.97;;;2.00;;
10056;SDS011;5068;51.286;7.518;2023-08-21T04:46:53;4.65;;;1.73;;
10056;SDS011;5068;51.286;7.518;2023-08-21T04:48:26;3.30;;;2.38;;
10056;SDS011;5068;51.286;7.518;2023-08-21T04:50:00;4.03;;;2.00;;
10056;SDS011;5068;51.286;7.518;2023-08-21T04:51:34;4.57;;;2.10;;
10056;SDS011;5068;51.286;7.518;2023-08-21T04:53:08;3.38;;;1.85;;
10056;SDS011;5068;51.286;7.518;2023-08-21T04:54:40;6.78;;;1.92;;
10056;SDS011;5068;51.286;7.518;2023-08-21T04:56:17;3.10;;;2.00;;
10056;SDS011;5068;51.286;7.518;2023-08-21T04:57:49;3.42;;;2.10;;
10056;SDS011;5068;51.286;7.518;2023-08-21T04:59:22;2.70;;;1.98;;
10056;SDS011;5068;51.286;7.518;2023-08-21T05:00:55;6.55;;;2.20;;
10056;SDS011;5068;51.286;7.518;2023-08-21T05:02:29;4.50;;;1.98;;
10056;SDS011;5068;51.286;7.518;2023-08-21T05:04:02;3.08;;;1.70;;
10056;SDS011;5068;51.286;7.518;2023-08-21T05:05:36;6.45;;;2.25;;
10056;SDS011;5068;51.286;7.518;2023-08-21T05:07:09;2.85;;;1.50;;
10056;SDS011;5068;51.286;7.518;2023-08-21T05:08:42;5.28;;;2.00;;
10056;SDS011;5068;51.286;7.518;2023-08-21T05:10:15;4.05;;;1.75;;
10056;SDS011;5068;51.286;7.518;2023-08-21T05:11:48;12.07;;;2.25;;
10056;SDS011;5068;51.286;7.518;2023-08-21T05:13:22;2.55;;;1.83;;
10056;SDS011;5068;51.286;7.518;2023-08-21T05:14:55;3.22;;;2.20;;
10056;SDS011;5068;51.286;7.518;2023-08-21T05:16:28;3.17;;;2.00;;
10056;SDS011;5068;51.286;7.518;2023-08-21T05:18:03;2.40;;;1.55;;
10056;SDS011;5068;51.286;7.518;2023-08-21T05:19:36;2.10;;;1.65;;
10056;SDS011;5068;51.286;7.518;2023-08-21T05:21:09;3.67;;;1.90;;
10056;SDS011;5068;51.286;7.518;2023-08-21T05:22:42;3.20;;;1.92;;
10056;SDS011;5068;51.286;7.518;2023-08-21T05:24:15;3.17;;;1.77;;
10056;SDS011;5068;51.286;7.518;2023-08-21T05:25:53;5.72;;;1.83;;
10056;SDS011;5068;51.286;7.518;2023-08-21T05:27:27;3.67;;;1.90;;
10056;SDS011;5068;51.286;7.518;2023-08-21T05:28:59;2.05;;;1.50;;
10056;SDS011;5068;51.286;7.518;2023-08-21T05:30:32;2.63;;;2.00;;
10056;SDS011;5068;51.286;7.518;2023-08-21T05:32:07;2.30;;;1.50;;
10056;SDS011;5068;51.286;7.518;2023-08-21T05:33:41;2.85;;;2.17;;
10056;SDS011;5068;51.286;7.518;2023-08-21T05:35:15;4.97;;;2.13;;
10056;SDS011;5068;51.286;7.518;2023-08-21T05:36:49;3.33;;;2.00;;
10056;SDS011;5068;51.286;7.518;2023-08-21T05:38:21;3.42;;;1.70;;
10056;SDS011;5068;51.286;7.518;2023-08-21T05:39:54;3.05;;;1.60;;
10056;SDS011;5068;51.286;7.518;2023-08-21T05:41:27;3.40;;;1.80;;
10056;SDS011;5068;51.286;7.518;2023-08-21T05:43:00;5.93;;;1.70;;
10056;SDS011;5068;51.286;7.518;2023-08-21T05:44:32;2.00;;;1.80;;
10056;SDS011;5068;51.286;7.518;2023-08-21T05:46:06;3.25;;;2.10;;
10056;SDS011;5068;51.286;7.518;2023-08-21T05:47:38;3.08;;;2.17;;
10056;SDS011;5068;51.286;7.518;2023-08-21T05:49:13;2.88;;;2.40;;
10056;SDS011;5068;51.286;7.518;2023-08-21T05:50:50;2.30;;;1.90;;
10056;SDS011;5068;51.286;7.518;2023-08-21T05:52:24;3.50;;;1.80;;
10056;SDS011;5068;51.286;7.518;2023-08-21T05:53:57;3.28;;;2.00;;
10056;SDS011;5068;51.286;7.518;2023-08-21T05:55:30;4.80;;;1.80;;
10056;SDS011;5068;51.286;7.518;2023-08-21T05:57:04;4.65;;;2.58;;
10056;SDS011;5068;51.286;7.518;2023-08-21T05:58:36;4.25;;;2.30;;
10056;SDS011;5068;51.286;7.518;2023-08-21T06:00:12;4.45;;;3.00;;
10056;SDS011;5068;51.286;7.518;2023-08-21T06:01:47;4.07;;;2.30;;
10056;SDS011;5068;51.286;7.518;2023-08-21T06:03:19;4.25;;;2.33;;
10056;SDS011;5068;51.286;7.518;2023-08-21T06:05:12;4.20;;;2.60;;
10056;SDS011;5068;51.286;7.518;2023-08-21T06:06:46;3.50;;;2.95;;
10056;SDS011;5068;51.286;7.518;2023-08-21T06:08:18;4.43;;;2.50;;
10056;SDS011;5068;51.286;7.518;2023-08-21T06:09:52;3.38;;;2.60;;
10056;SDS011;5068;51.286;7.518;2023-08-21T06:11:25;3.47;;;2.15;;
10056;SDS011;5068;51.286;7.518;2023-08-21T06:12:58;4.70;;;2.30;;
10056;SDS011;5068;51.286;7.518;2023-08-21T06:14:31;4.82;;;2.22;;
10056;SDS011;5068;51.286;7.518;2023-08-21T06:16:05;6.35;;;2.90;;
10056;SDS011;5068;51.286;7.518;2023-08-21T06:17:40;4.88;;;2.75;;
10056;SDS011;5068;51.286;7.518;2023-08-21T06:19:14;4.35;;;2.45;;
10056;SDS011;5068;51.286;7.518;2023-08-21T06:20:47;3.80;;;2.70;;
10056;SDS011;5068;51.286;7.518;2023-08-21T06:22:24;3.67;;;2.65;;
10056;SDS011;5068;51.286;7.518;2023-08-21T06:23:58;5.10;;;2.80;;
10056;SDS011;5068;51.286;7.518;2023-08-21T06:25:32;4.38;;;3.10;;
10056;SDS011;5068;51.286;7.518;2023-08-21T06:27:04;4.03;;;2.47;;
10056;SDS011;5068;51.286;7.518;2023-08-21T06:28:39;4.25;;;2.30;;
10056;SDS011;5068;51.286;7.518;2023-08-21T06:30:12;3.65;;;2.67;;
10056;SDS011;5068;51.286;7.518;2023-08-21T06:31:48;3.85;;;2.65;;
10056;SDS011;5068;51.286;7.518;2023-08-21T06:33:22;3.85;;;3.00;;
10056;SDS011;5068;51.286;7.518;2023-08-21T06:34:55;4.82;;;2.70;;
10056;SDS011;5068;51.286;7.518;2023-08-21T06:36:29;6.07;;;2.75;;
10056;SDS011;5068;51.286;7.518;2023-08-21T06:38:03;5.43;;;3.00;;
10056;SDS011;5068;51.286;7.518;2023-08-21T06:39:37;3.72;;;2.70;;
10056;SDS011;5068;51.286;7.518;2023-08-21T06:41:10;3.38;;;2.45;;
10056;SDS011;5068;51.286;7.518;2023-08-21T06:42:43;4.55;;;2.80;;
10056;SDS011;5068;51.286;7.518;2023-08-21T06:44:17;5.55;;;3.20;;
10056;SDS011;5068;51.286;7.518;2023-08-21T06:45:49;6.03;;;3.47;;
10056;SDS011;5068;51.286;7.518;2023-08-21T06:47:24;6.47;;;3.53;;
10056;SDS011;5068;51.286;7.518;2023-08-21T06:48:56;4.70;;;3.38;;
10056;SDS011;5068;51.286;7.518;2023-08-21T06:50:30;4.93;;;2.92;;
10056;SDS011;5068;51.286;7.518;2023-08-21T06:52:04;5.05;;;3.33;;
10056;SDS011;5068;51.286;7.518;2023-08-21T06:53:38;2.65;;;2.40;;
10056;SDS011;5068;51.286;7.518;2023-08-21T06:55:10;4.63;;;3.17;;
10056;SDS011;5068;51.286;7.518;2023-08-21T06:56:43;4.32;;;3.33;;
10056;SDS011;5068;51.286;7.518;2023-08-21T06:58:17;5.03;;;3.20;;
10056;SDS011;5068;51.286;7.518;2023-08-21T06:59:49;3.70;;;3.10;;
10056;SDS011;5068;51.286;7.518;2023-08-21T07:01:22;6.40;;;3.20;;
10056;SDS011;5068;51.286;7.518;2023-08-21T07:02:55;3.95;;;3.15;;
10056;SDS011;5068;51.286;7.518;2023-08-21T07:04:29;3.75;;;3.08;;
10056;SDS011;5068;51.286;7.518;2023-08-21T07:06:02;5.70;;;3.55;;
10056;SDS011;5068;51.286;7.518;2023-08-21T07:07:36;5.55;;;3.00;;
10056;SDS011;5068;51.286;7.518;2023-08-21T07:09:09;6.22;;;3.15;;
10056;SDS011;5068;51.286;7.518;2023-08-21T07:10:42;4.63;;;3.20;;
10056;SDS011;5068;51.286;7.518;2023-08-21T07:12:14;8.40;;;3.22;;
10056;SDS011;5068;51.286;7.518;2023-08-21T07:13:47;6.07;;;3.67;;
10056;SDS011;5068;51.286;7.518;2023-08-21T07:15:20;6.95;;;3.40;;
10056;SDS011;5068;51.286;7.518;2023-08-21T07:16:54;4.70;;;3.45;;
10056;SDS011;5068;51.286;7.518;2023-08-21T07:18:26;5.85;;;4.13;;
10056;SDS011;5068;51.286;7.518;2023-08-21T07:20:00;5.53;;;3.30;;
10056;SDS011;5068;51.286;7.518;2023-08-21T07:21:32;3.92;;;3.05;;
10056;SDS011;5068;51.286;7.518;2023-08-21T07:23:08;5.22;;;2.92;;
10056;SDS011;5068;51.286;7.518;2023-08-21T07:24:42;4.97;;;3.03;;
10056;SDS011;5068;51.286;7.518;2023-08-21T07:26:15;4.55;;;3.17;;
10056;SDS011;5068;51.286;7.518;2023-08-21T07:27:48;4.47;;;3.25;;
10056;SDS011;5068;51.286;7.518;2023-08-21T07:29:21;6.68;;;3.20;;
10056;SDS011;5068;51.286;7.518;2023-08-21T07:30:54;5.13;;;3.85;;
10056;SDS011;5068;51.286;7.518;2023-08-21T07:32:28;4.55;;;3.17;;
10056;SDS011;5068;51.286;7.518;2023-08-21T07:34:00;5.43;;;3.05;;
10056;SDS011;5068;51.286;7.518;2023-08-21T07:35:34;6.10;;;3.50;;
10056;SDS011;5068;51.286;7.518;2023-08-21T07:37:07;4.53;;;3.30;;
10056;SDS011;5068;51.286;7.518;2023-08-21T07:38:42;5.80;;;3.30;;
10056;SDS011;5068;51.286;7.518;2023-08-21T07:40:15;4.35;;;3.38;;
10056;SDS011;5068;51.286;7.518;2023-08-21T07:41:48;4.97;;;3.33;;
10056;SDS011;5068;51.286;7.518;2023-08-21T07:43:21;5.47;;;3.65;;
10056;SDS011;5068;51.286;7.518;2023-08-21T07:44:53;4.43;;;3.50;;
10056;SDS011;5068;51.286;7.518;2023-08-21T07:46:26;4.30;;;3.28;;
10056;SDS011;5068;51.286;7.518;2023-08-21T07:47:59;4.15;;;3.15;;
10056;SDS011;5068;51.286;7.518;2023-08-21T07:49:45;4.10;;;3.10;;
10056;SDS011;5068;51.286;7.518;2023-08-21T07:51:18;4.55;;;3.17;;
10056;SDS011;5068;51.286;7.518;2023-08-21T07:52:51;3.30;;;3.00;;
10056;SDS011;5068;51.286;7.518;2023-08-21T07:54:25;4.18;;;3.30;;
10056;SDS011;5068;51.286;7.518;2023-08-21T07:55:58;3.33;;;2.65;;
10056;SDS011;5068;51.286;7.518;2023-08-21T07:57:30;4.82;;;2.72;;
10056;SDS011;5068;51.286;7.518;2023-08-21T07:59:04;5.07;;;3.15;;
10056;SDS011;5068;51.286;7.518;2023-08-21T08:00:36;5.20;;;2.85;;
10056;SDS011;5068;51.286;7.518;2023-08-21T08:02:10;3.92;;;2.90;;
10056;SDS011;5068;51.286;7.518;2023-08-21T08:03:44;5.63;;;2.83;;
10056;SDS011;5068;51.286;7.518;2023-08-21T08:05:17;4.82;;;3.00;;
10056;SDS011;5068;51.286;7.518;2023-08-21T08:06:49;4.72;;;3.13;;
10056;SDS011;5068;51.286;7.518;2023-08-21T08:08:22;4.50;;;3.10;;
10056;SDS011;5068;51.286;7.518;2023-08-21T08:09:56;4.00;;;3.40;;
10056;SDS011;5068;51.286;7.518;2023-08-21T08:13:02;7.35;;;2.88;;
10056;SDS011;5068;51.286;7.518;2023-08-21T08:14:35;3.55;;;2.90;;
10056;SDS011;5068;51.286;7.518;2023-08-21T08:16:08;4.32;;;3.35;;
10056;SDS011;5068;51.286;7.518;2023-08-21T08:17:42;3.85;;;3.33;;
10056;SDS011;5068;51.286;7.518;2023-08-21T08:19:14;4.82;;;3.20;;
10056;SDS011;5068;51.286;7.518;2023-08-21T08:20:48;4.22;;;3.03;;
10056;SDS011;5068;51.286;7.518;2023-08-21T08:22:20;4.47;;;3.33;;
10056;SDS011;5068;51.286;7.518;2023-08-21T08:23:53;4.63;;;3.40;;
10056;SDS011;5068;51.286;7.518;2023-08-21T08:25:28;4.35;;;3.22;;
10056;SDS011;5068;51.286;7.518;2023-08-21T08:27:01;4.15;;;3.75;;
10056;SDS011;5068;51.286;7.518;2023-08-21T08:28:34;4.72;;;3.60;;
10056;SDS011;5068;51.286;7.518;2023-08-21T08:30:07;4.43;;;4.00;;
10056;SDS011;5068;51.286;7.518;2023-08-21T08:31:41;5.03;;;3.25;;
10056;SDS011;5068;51.286;7.518;2023-08-21T08:33:14;6.38;;;3.88;;
10056;SDS011;5068;51.286;7.518;2023-08-21T08:34:47;5.55;;;4.05;;
10056;SDS011;5068;51.286;7.518;2023-08-21T08:36:20;5.47;;;4.15;;
10056;SDS011;5068;51.286;7.518;2023-08-21T08:37:52;4.60;;;4.20;;
10056;SDS011;5068;51.286;7.518;2023-08-21T08:39:26;4.78;;;3.80;;
10056;SDS011;5068;51.286;7.518;2023-08-21T08:41:01;6.57;;;3.90;;
10056;SDS011;5068;51.286;7.518;2023-08-21T08:42:39;4.70;;;3.70;;
10056;SDS011;5068;51.286;7.518;2023-08-21T08:44:11;5.20;;;4.45;;
10056;SDS011;5068;51.286;7.518;2023-08-21T08:45:48;4.88;;;4.43;;
10056;SDS011;5068;51.286;7.518;2023-08-21T08:47:24;6.30;;;4.30;;
10056;SDS011;5068;51.286;7.518;2023-08-21T08:48:59;6.10;;;4.80;;
10056;SDS011;5068;51.286;7.518;2023-08-21T08:52:07;6.20;;;4.32;;
10056;SDS011;5068;51.286;7.518;2023-08-21T08:53:40;5.07;;;4.53;;
10056;SDS011;5068;51.286;7.518;2023-08-21T08:55:16;5.10;;;4.38;;
10056;SDS011;5068;51.286;7.518;2023-08-21T08:56:49;6.03;;;5.05;;
10056;SDS011;5068;51.286;7.518;2023-08-21T08:58:23;6.10;;;5.25;;
10056;SDS011;5068;51.286;7.518;2023-08-21T08:59:55;6.35;;;4.47;;
10056;SDS011;5068;51.286;7.518;2023-08-21T09:01:29;5.97;;;5.38;;
10056;SDS011;5068;51.286;7.518;2023-08-21T09:03:03;5.75;;;5.15;;
10056;SDS011;5068;51.286;7.518;2023-08-21T09:04:36;5.13;;;4.68;;
10056;SDS011;5068;51.286;7.518;2023-08-21T09:06:10;5.43;;;4.93;;
10056;SDS011;5068;51.286;7.518;2023-08-21T09:07:43;5.63;;;5.03;;
10056;SDS011;5068;51.286;7.518;2023-08-21T09:09:15;6.47;;;5.70;;
10056;SDS011;5068;51.286;7.518;2023-08-21T09:10:48;5.93;;;5.32;;
10056;SDS011;5068;51.286;7.518;2023-08-21T09:12:22;5.90;;;5.40;;
10056;SDS011;5068;51.286;7.518;2023-08-21T09:13:55;5.63;;;5.05;;
10056;SDS011;5068;51.286;7.518;2023-08-21T09:15:28;6.00;;;5.50;;
10056;SDS011;5068;51.286;7.518;2023-08-21T09:17:12;5.97;;;5.38;;
10056;SDS011;5068;51.286;7.518;2023-08-21T09:18:47;6.22;;;5.55;;
10056;SDS011;5068;51.286;7.518;2023-08-21T09:20:21;6.35;;;5.72;;
10056;SDS011;5068;51.286;7.518;2023-08-21T09:21:53;6.13;;;5.55;;
10056;SDS011;5068;51.286;7.518;2023-08-21T09:23:27;6.68;;;5.95;;
10056;SDS011;5068;51.286;7.518;2023-08-21T09:25:02;7.00;;;6.10;;
10056;SDS011;5068;51.286;7.518;2023-08-21T09:26:38;6.25;;;5.65;;
10056;SDS011;5068;51.286;7.518;2023-08-21T09:28:13;6.57;;;5.45;;
10056;SDS011;5068;51.286;7.518;2023-08-21T09:29:46;6.15;;;5.55;;
10056;SDS011;5068;51.286;7.518;2023-08-21T09:31:23;6.30;;;5.25;;
10056;SDS011;5068;51.286;7.518;2023-08-21T09:33:01;5.90;;;5.32;;
10056;SDS011;5068;51.286;7.518;2023-08-21T09:34:36;5.35;;;4.85;;
10056;SDS011;5068;51.286;7.518;2023-08-21T09:36:10;7.15;;;4.97;;
10056;SDS011;5068;51.286;7.518;2023-08-21T09:37:44;8.38;;;4.85;;
10056;SDS011;5068;51.286;7.518;2023-08-21T09:39:18;9.65;;;4.93;;
10056;SDS011;5068;51.286;7.518;2023-08-21T09:40:52;5.13;;;4.68;;